Wetterdaten: Juni 2015
Datum Temp Feuchte Luftdruck Regen Wind Richtung Sonnenschein UV Solar Windben
01.06.2015 11,0 C 75 % 1015,0 hPa 4,8 l/m 0,5 km/h S 9,58 h 2,6 UV-I 365 W/m 3,6 km/h
02.06.2015 15,9 C 73 % 1012,0 hPa 0,0 l/m 7,4 km/h S 1,00 h 1,7 UV-I 168 W/m 18,5 km/h
03.06.2015 14,2 C 77 % 1021,6 hPa 2,4 l/m 0,2 km/h S-SW 3,08 h 2,2 UV-I 224 W/m 1,6 km/h
04.06.2015 16,6 C 61 % 1026,0 hPa 0,2 l/m 2,3 km/h SO 12,00 h 3,5 UV-I 480 W/m 4,8 km/h
05.06.2015 23,3 C 54 % 1017,5 hPa 0,0 l/m 4,4 km/h S-SO 13,00 h 3,7 UV-I 498 W/m 10,8 km/h
06.06.2015 18,5 C 67 % 1021,8 hPa 1,4 l/m 2,4 km/h W-NW 6,42 h 2,7 UV-I 319 W/m 6,0 km/h
07.06.2015 16,1 C 56 % 1027,6 hPa 0,0 l/m 1,0 km/h N 12,00 h 3,7 UV-I 476 W/m 4,8 km/h
08.06.2015 13,3 C 65 % 1027,3 hPa 0,0 l/m 4,3 km/h N-NO 9,25 h 3,4 UV-I 406 W/m 18,1 km/h
09.06.2015 12,3 C 66 % 1027,4 hPa 0,0 l/m 2,8 km/h N-NO 7,75 h 2,5 UV-I 354 W/m 11,3 km/h
10.06.2015 15,3 C 64 % 1025,0 hPa 0,0 l/m 1,7 km/h N-NO 6,42 h 2,3 UV-I 289 W/m 6,4 km/h
11.06.2015 17,3 C 56 % 1018,8 hPa 0,0 l/m 1,5 km/h NO 8,25 h 3,1 UV-I 406 W/m 5,2 km/h
12.06.2015 20,4 C 58 % 1010,5 hPa 0,0 l/m 0,7 km/h S 13,33 h 3,8 UV-I 500 W/m 4,0 km/h
13.06.2015 18,7 C 71 % 1008,1 hPa 0,0 l/m 1,0 km/h W 6,00 h 2,6 UV-I 301 W/m 6,8 km/h
14.06.2015 15,9 C 76 % 1010,2 hPa 0,0 l/m 0,9 km/h N 4,92 h 2,6 UV-I 298 W/m 10,1 km/h
15.06.2015 13,8 C 60 % 1018,4 hPa 0,0 l/m 7,0 km/h N-NO 8,08 h 3,6 UV-I 422 W/m 20,1 km/h
16.06.2015 11,0 C 73 % 1023,6 hPa 0,0 l/m 1,8 km/h N-NO 5,00 h 2,2 UV-I 251 W/m 7,2 km/h
17.06.2015 15,3 C 60 % 1020,6 hPa 0,6 l/m 1,0 km/h S 10,17 h 3,4 UV-I 423 W/m 8,4 km/h
18.06.2015 13,9 C 77 % 1013,8 hPa 12,2 l/m 1,5 km/h N-NW 2,50 h 2,3 UV-I 227 W/m 13,6 km/h
19.06.2015 10,5 C 86 % 1016,1 hPa 3,8 l/m 1,5 km/h NW 1,25 h 1,8 UV-I 166 W/m 8,9 km/h
20.06.2015 11,4 C 79 % 1018,6 hPa 0,4 l/m 0,1 km/h NW 0,83 h 1,4 UV-I 160 W/m 2,8 km/h
21.06.2015 13,8 C 86 % 1013,8 hPa 4,8 l/m 0,8 km/h S 1,50 h 1,8 UV-I 188 W/m 2,8 km/h
22.06.2015 11,1 C 91 % 1006,2 hPa 6,0 l/m 0,5 km/h S-SW 1,25 h 1,8 UV-I 169 W/m 4,0 km/h
23.06.2015 11,3 C 90 % 1011,6 hPa 21,8 l/m 0,4 km/h NW 2,50 h 2,3 UV-I 232 W/m 5,6 km/h
24.06.2015 11,6 C 86 % 1021,3 hPa 1,4 l/m 0,2 km/h NW 2,58 h 1,9 UV-I 210 W/m 1,6 km/h
25.06.2015 16,9 C 70 % 1021,5 hPa 0,0 l/m 1,2 km/h S 8,58 h 2,8 UV-I 396 W/m 3,6 km/h
26.06.2015 19,3 C 67 % 1017,7 hPa 0,4 l/m 0,0 km/h S-SW 3,83 h 2,6 UV-I 289 W/m 0,8 km/h
27.06.2015 17,3 C 83 % 1015,8 hPa 9,8 l/m 1,9 km/h NW 3,42 h 2,5 UV-I 258 W/m 8,5 km/h
28.06.2015 15,7 C 80 % 1020,8 hPa 0,4 l/m 0,0 km/h N-NW 8,75 h 3,9 UV-I 394 W/m 0,0 km/h
29.06.2015 19,0 C 70 % 1020,0 hPa 0,0 l/m 1,4 km/h NW 10,92 h 3,3 UV-I 469 W/m 4,8 km/h
30.06.2015 20,2 C 61 % 1020,8 hPa 0,0 l/m 0,5 km/h N-NO 12,00 h 3,8 UV-I 473 W/m 2,4 km/h
Min-Datum 17.06.15 12.06.15 22.06.15 15 Tage 01.06.15 - - - - 01.06.15
Min-Zeit 05:10 16:45 23:05 - 05:35 - - - - 05:35
Minimum 2,6 C 26 % 1003,7 hPa - 0,0 km/h - - - - 0,0 km/h
Max-Datum 05.06.15 04.06.15 04.06.15 23.06.15 02.06.15 - 12.06.15 28.06.15 09.06.15 02.06.15
Max-Zeit 16:35 05:55 09:40 18:15 10:40 - 21:20 13:25 14:45 16:45
Maximum 31,1 C 100 % 1028,8 hPa 21,8 l/m 24,2 km/h
S
- 13,25 h 8,1 UV-I 1246 W/m 43,5 km/h
S
Durchschnitt 15,4 C 71 % 1018,3 hPa #70,4 l/m 1,7 km/h N-NO #196:10 h 2,7 UV-I 327 W/m 6,9 km/h

Durchschnitt Minimum Temp.9,3 C
Durchschnitt Maximum Temp.20,3 C